createdAt,value
2022-12-25T00:04:40.841Z,89.93
2022-12-25T00:09:43.049Z,89.91
2022-12-25T00:14:45.358Z,89.66
2022-12-25T00:19:47.955Z,89.47
2022-12-25T00:24:50.173Z,89.45
2022-12-25T00:29:52.198Z,89.69
2022-12-25T00:34:54.240Z,89.52
2022-12-25T00:39:56.395Z,89.22
2022-12-25T00:44:58.472Z,88.81
2022-12-25T00:50:00.563Z,88.51
2022-12-25T00:55:03.098Z,88.36
2022-12-25T01:00:05.605Z,88.17
2022-12-25T01:05:08.456Z,87.79
2022-12-25T01:10:22.859Z,87.83
2022-12-25T01:15:25.400Z,87.84
2022-12-25T01:20:27.688Z,87.81
2022-12-25T01:25:29.781Z,88.06
2022-12-25T01:30:32.464Z,88.26
2022-12-25T01:35:34.518Z,88.64
2022-12-25T01:40:36.827Z,88.69
2022-12-25T01:45:43.823Z,88.88
2022-12-25T01:50:50.495Z,89.07
2022-12-25T01:56:02.856Z,89.09
2022-12-25T02:01:04.967Z,89.12
2022-12-25T02:06:08.082Z,89.39
2022-12-25T02:11:30.143Z,89.25
2022-12-25T02:16:57.580Z,89.33
2022-12-25T02:22:26.398Z,89.54
2022-12-25T02:27:56.214Z,89.77
2022-12-25T02:33:28.317Z,89.85
2022-12-25T02:38:38.177Z,89.73
2022-12-25T02:44:02.283Z,89.91
2022-12-25T02:49:28.727Z,89.89
2022-12-25T02:54:55.147Z,89.96
2022-12-25T03:00:19.692Z,90.03
2022-12-25T03:05:43.655Z,89.97
2022-12-25T03:11:18.436Z,90.29
2022-12-25T03:16:40.537Z,90.37
2022-12-25T03:22:01.306Z,90.17
2022-12-25T03:27:03.388Z,90.40
2022-12-25T03:32:29.680Z,90.79
2022-12-25T03:38:12.098Z,90.83
2022-12-25T03:44:00.424Z,90.74
2022-12-25T03:49:29.586Z,90.55
2022-12-25T03:54:52.494Z,90.49
2022-12-25T04:00:13.541Z,90.15
2022-12-25T04:05:34.503Z,89.77
2022-12-25T04:10:55.513Z,89.53
2022-12-25T04:16:16.455Z,89.13
2022-12-25T04:21:37.303Z,88.85
2022-12-25T04:26:58.234Z,88.72
2022-12-25T04:32:18.973Z,88.59
2022-12-25T04:37:21.343Z,88.79
2022-12-25T04:42:23.459Z,88.93
2022-12-25T04:47:25.549Z,89.09
2022-12-25T04:52:27.747Z,89.10
2022-12-25T04:57:29.794Z,89.10
2022-12-25T05:02:32.270Z,89.15
2022-12-25T05:07:34.541Z,89.16
2022-12-25T05:12:36.620Z,89.47
2022-12-25T05:17:38.673Z,89.96
2022-12-25T05:22:42.588Z,90.22
2022-12-25T05:27:48.679Z,90.66
2022-12-25T05:32:54.116Z,90.70
2022-12-25T05:37:56.948Z,90.91
2022-12-25T05:42:59.171Z,90.94
2022-12-25T05:48:01.255Z,91.01
2022-12-25T05:53:08.290Z,91.00
2022-12-25T05:58:12.320Z,91.23
2022-12-25T06:03:14.479Z,91.24
2022-12-25T06:08:16.686Z,91.34
2022-12-25T06:13:18.780Z,91.36
2022-12-25T06:18:20.821Z,91.51
2022-12-25T06:23:22.906Z,91.42
2022-12-25T06:28:25.357Z,91.58
2022-12-25T06:33:27.499Z,91.85
2022-12-25T06:38:29.621Z,91.76
2022-12-25T06:43:32.949Z,92.10
2022-12-25T06:48:36.441Z,91.72
2022-12-25T06:53:40.308Z,91.97
2022-12-25T06:58:45.087Z,92.37
2022-12-25T07:03:50.166Z,92.11
2022-12-25T07:08:52.792Z,91.98
2022-12-25T07:13:55.196Z,92.25
2022-12-25T07:19:00.306Z,92.01
2022-12-25T07:24:02.430Z,91.75
2022-12-25T07:29:04.760Z,91.75
2022-12-25T07:34:06.826Z,91.98
2022-12-25T07:39:11.176Z,92.09
2022-12-25T07:44:13.673Z,91.88
2022-12-25T07:49:15.731Z,91.23
2022-12-25T07:54:17.929Z,90.81
2022-12-25T07:59:20.612Z,90.09
2022-12-25T08:04:22.713Z,89.24
2022-12-25T08:09:24.909Z,88.52
2022-12-25T08:14:27.012Z,88.31
2022-12-25T08:19:29.303Z,88.50
2022-12-25T08:24:31.380Z,88.72
2022-12-25T08:29:33.825Z,88.35
2022-12-25T08:34:38.310Z,87.68
2022-12-25T08:39:40.399Z,87.26
2022-12-25T08:44:42.536Z,87.26
2022-12-25T08:49:44.624Z,87.47
2022-12-25T08:54:47.370Z,86.78
2022-12-25T08:59:49.499Z,85.27
2022-12-25T09:04:51.622Z,84.08
2022-12-25T09:09:53.752Z,83.36
2022-12-25T09:14:55.825Z,81.90
2022-12-25T09:19:57.918Z,80.94
2022-12-25T09:25:00.036Z,79.92
2022-12-25T09:30:03.837Z,79.55
2022-12-25T09:35:07.885Z,79.14
2022-12-25T09:40:17.278Z,78.55
2022-12-25T09:45:38.733Z,77.59
2022-12-25T09:50:46.570Z,75.64
2022-12-25T09:55:57.734Z,72.86
2022-12-25T10:01:26.295Z,64.79
2022-12-25T10:07:07.622Z,63.24
2022-12-25T10:12:24.044Z,57.06
2022-12-25T10:17:36.073Z,49.70
2022-12-25T10:22:45.287Z,46.78
2022-12-25T10:27:52.879Z,51.59
2022-12-25T10:32:57.205Z,54.23
2022-12-25T10:38:06.220Z,45.58
2022-12-25T10:43:45.758Z,54.21
2022-12-25T10:48:51.883Z,46.42
2022-12-25T10:53:53.983Z,49.40
2022-12-25T10:59:06.415Z,32.68
2022-12-25T11:04:19.944Z,27.32
2022-12-25T11:09:22.218Z,22.55
2022-12-25T11:14:25.493Z,20.46
2022-12-25T11:19:30.908Z,19.96
2022-12-25T11:24:33.930Z,19.50
2022-12-25T11:29:50.706Z,18.55
2022-12-25T11:34:54.171Z,17.33
2022-12-25T11:39:56.425Z,17.98
2022-12-25T11:45:03.015Z,16.91
2022-12-25T11:50:28.618Z,16.75
2022-12-25T11:55:48.266Z,18.31
2022-12-25T12:00:53.731Z,25.46
2022-12-25T12:06:01.871Z,17.91
2022-12-25T12:11:16.199Z,18.01
2022-12-25T12:16:18.895Z,18.11
2022-12-25T12:21:27.602Z,19.21
2022-12-25T12:26:34.670Z,19.19
2022-12-25T12:31:47.287Z,21.67
2022-12-25T12:36:52.740Z,26.83
2022-12-25T12:41:54.913Z,27.67
2022-12-25T12:46:57.715Z,35.79
2022-12-25T12:52:24.216Z,39.75
2022-12-25T12:57:29.834Z,42.64
2022-12-25T13:02:56.949Z,44.27
2022-12-25T13:08:50.252Z,45.94
2022-12-25T13:13:55.137Z,48.63
2022-12-25T13:18:57.727Z,50.02
2022-12-25T13:24:02.239Z,51.27
2022-12-25T13:29:11.048Z,52.11
2022-12-25T13:34:35.872Z,52.58
2022-12-25T13:39:46.883Z,54.88
2022-12-25T13:45:01.692Z,54.90
2022-12-25T13:50:26.651Z,55.92
2022-12-25T13:55:30.551Z,56.60
2022-12-25T14:00:35.785Z,58.07
2022-12-25T14:05:42.951Z,58.91
2022-12-25T14:10:49.218Z,60.35
2022-12-25T14:15:53.546Z,61.30
2022-12-25T14:21:08.111Z,62.87
2022-12-25T14:26:17.552Z,63.96
2022-12-25T14:31:21.470Z,64.69
2022-12-25T14:36:23.873Z,65.65
2022-12-25T14:41:33.886Z,66.61
2022-12-25T14:46:36.166Z,67.35
2022-12-25T14:51:39.120Z,67.54
2022-12-25T14:56:47.202Z,68.22
2022-12-25T15:02:01.208Z,68.40
2022-12-25T15:07:09.668Z,69.40
2022-12-25T15:12:12.494Z,70.16
2022-12-25T15:17:26.412Z,71.32
2022-12-25T15:22:47.747Z,72.09
2022-12-25T15:27:50.850Z,73.46
2022-12-25T15:32:52.928Z,74.27
2022-12-25T15:37:54.980Z,74.92
2022-12-25T15:42:57.175Z,74.85
2022-12-25T15:47:59.370Z,75.15
2022-12-25T15:53:01.501Z,75.16
2022-12-25T15:58:03.584Z,75.22
2022-12-25T16:03:05.845Z,76.07
2022-12-25T16:08:09.276Z,75.52
2022-12-25T16:13:11.447Z,75.49
2022-12-25T16:18:13.633Z,76.05
2022-12-25T16:23:15.775Z,76.06
2022-12-25T16:28:17.863Z,76.00
2022-12-25T16:33:19.994Z,76.20
2022-12-25T16:38:22.204Z,76.35
2022-12-25T16:43:26.069Z,76.60
2022-12-25T16:48:28.270Z,77.43
2022-12-25T16:53:30.417Z,77.55
2022-12-25T16:58:32.533Z,78.20
2022-12-25T17:03:34.906Z,78.40
2022-12-25T17:08:37.112Z,78.63
2022-12-25T17:13:39.361Z,79.06
2022-12-25T17:18:42.683Z,79.06
2022-12-25T17:23:45.232Z,79.19
2022-12-25T17:28:47.370Z,79.56
2022-12-25T17:33:49.501Z,79.65
2022-12-25T17:38:51.668Z,80.42
2022-12-25T17:43:54.277Z,79.96
2022-12-25T17:48:58.247Z,79.96
2022-12-25T17:54:03.284Z,79.94
2022-12-25T17:59:08.360Z,79.71
2022-12-25T18:04:10.603Z,80.10
2022-12-25T18:09:13.111Z,80.79
2022-12-25T18:14:16.581Z,80.67
2022-12-25T18:19:19.736Z,81.00
2022-12-25T18:24:21.856Z,81.02
2022-12-25T18:29:23.941Z,81.30
2022-12-25T18:34:26.037Z,79.97
2022-12-25T18:39:28.723Z,79.18
2022-12-25T18:44:30.854Z,78.53
2022-12-25T18:49:33.435Z,78.29
2022-12-25T18:54:35.604Z,78.23
2022-12-25T18:59:37.844Z,77.96
2022-12-25T19:04:40.513Z,78.26
2022-12-25T19:09:42.676Z,78.70
2022-12-25T19:14:47.036Z,79.10
2022-12-25T19:19:50.607Z,79.60
2022-12-25T19:24:52.866Z,80.26
2022-12-25T19:29:55.059Z,80.28
2022-12-25T19:34:57.169Z,79.87
2022-12-25T19:39:59.229Z,79.77
2022-12-25T19:45:03.452Z,79.82
2022-12-25T19:50:06.163Z,79.50
2022-12-25T19:55:08.736Z,79.88
2022-12-25T20:00:11.167Z,79.40
2022-12-25T20:05:13.237Z,79.23
2022-12-25T20:10:15.411Z,79.11
2022-12-25T20:15:17.594Z,78.61
2022-12-25T20:20:19.674Z,78.29
2022-12-25T20:25:21.734Z,77.60
2022-12-25T20:30:23.883Z,77.31
2022-12-25T20:35:25.957Z,77.19
2022-12-25T20:40:28.058Z,77.55
2022-12-25T20:45:30.760Z,77.12
2022-12-25T20:50:32.891Z,76.83
2022-12-25T20:55:35.008Z,76.82
2022-12-25T21:00:40.361Z,77.14
2022-12-25T21:05:49.884Z,77.09
2022-12-25T21:10:55.515Z,77.13
2022-12-25T21:15:58.537Z,77.33
2022-12-25T21:21:05.457Z,77.56
2022-12-25T21:26:11.761Z,77.46
2022-12-25T21:31:14.079Z,77.01
2022-12-25T21:36:16.848Z,77.44
2022-12-25T21:41:18.952Z,77.60
2022-12-25T21:46:21.998Z,77.72
2022-12-25T21:51:46.447Z,77.76
2022-12-25T21:56:49.595Z,77.64
2022-12-25T22:01:52.785Z,78.06
2022-12-25T22:07:13.251Z,78.45
2022-12-25T22:12:35.814Z,78.79
2022-12-25T22:17:59.181Z,79.05
2022-12-25T22:23:01.539Z,79.45
2022-12-25T22:28:03.720Z,79.89
2022-12-25T22:33:06.757Z,80.20
2022-12-25T22:38:08.856Z,80.03
2022-12-25T22:43:10.957Z,79.95
2022-12-25T22:48:13.034Z,80.40
2022-12-25T22:53:15.113Z,80.35
2022-12-25T22:58:17.239Z,80.06
2022-12-25T23:03:19.407Z,80.12
2022-12-25T23:08:22.153Z,80.40
2022-12-25T23:13:42.478Z,80.37
2022-12-25T23:19:03.006Z,80.49
2022-12-25T23:24:23.989Z,79.84
2022-12-25T23:29:37.860Z,79.81
2022-12-25T23:34:41.543Z,79.40
2022-12-25T23:39:43.688Z,79.28
2022-12-25T23:44:45.837Z,79.50
2022-12-25T23:49:48.255Z,79.31
2022-12-25T23:54:50.344Z,79.70
2022-12-25T23:59:52.488Z,80.09
